Flight Track Log - Related Links

Times and Time Zones

All times are in EDT time to prevent confusion due to time zone crossing. See the DAL6234 flight status page for this flight to view local times or setup timezone preferences in your user account.

Time Position Orientation Groundspeed Altitude Reporting Facility
EDT Latitude Longitude Course Direction KTS MPH feet Rate Location/Type
Sun 03:47:56 PM 40.7333 -73.8333 313° West 189 217 2,700  Level New TRACON
Sun 03:48:56 PM 40.7333 -73.7833 90° East 210 242 5,400 2,550 Climbing New TRACON
Sun 03:49:56 PM 40.7833 -73.7167 45° Northeast 252 290 7,800 1,800 Climbing New TRACON
Sun 03:50:56 PM 40.8333 -73.6667 37° Northeast 278 320 9,000 600 Climbing New TRACON
Sun 03:51:56 PM 40.9000 -73.7167 330° Northwest 267 307 9,000  Level New TRACON
Sun 03:52:56 PM 40.9500 -73.7667 323° Northwest 273 314 9,000 100 Level New TRACON
Sun 03:53:00 PM 41.0623 -74.3246 313° West  Level FlightAware
Sun 03:53:56 PM 41.0000 -73.8500 309° West 277 319 9,200  Level New TRACON
Sun 03:54:56 PM 41.0500 -73.9333 309° West 278 320 12,200 2,900 Climbing New TRACON
Sun 03:55:56 PM 41.0667 -74.0333 282° West 281 323 15,000 1,900 Climbing New TRACON
Sun 03:56:56 PM 41.1000 -74.1333 294° West 284 327 16,000 364 Climbing New TRACON
Sun 03:58:41 PM 41.1486 -74.2981 291° West 290 334 16,000  Level New Center
Sun 03:59:42 PM 41.1769 -74.3931 292° West 290 334 16,000  Level New Center
Sun 04:00:39 PM 41.2031 -74.4911 290° West 290 334 16,000 356 Level New Center
Sun 04:01:40 PM 41.2375 -74.5842 296° West 290 334 16,700 1,131 Climbing New Center
Sun 04:02:41 PM 41.2847 -74.6694 306° West 285 328 18,300 1,869 Climbing New Center
Sun 04:03:42 PM 41.3322 -74.7469 309° West 295 339 20,500 1,866 Climbing New Center
Sun 04:04:40 PM 41.3875 -74.8358 310° West 301 346 22,000 756 Climbing New Center
Sun 04:05:41 PM 41.4525 -74.9394 310° West 331 381 22,000  Level New Center
Sun 04:06:39 PM 41.5175 -75.0433 310° West 354 407 22,000  Level New Center
Sun 04:07:40 PM 41.5806 -75.1442 310° West 360 414 22,000  Level New Center
Sun 04:08:42 PM 41.6433 -75.2483 309° West 360 414 22,000  Level New Center
Sun 04:09:39 PM 41.7039 -75.3525 308° West 360 414 22,000  Level New Center
Sun 04:10:40 PM 41.7644 -75.4539 309° West 360 414 22,000  Level New Center
Sun 04:11:40 PM 41.8228 -75.5581 307° West 354 407 22,000  Level New Center
Sun 04:12:41 PM 41.8831 -75.6572 309° West 354 407 22,000 -99 Level New Center
Sun 04:13:41 PM 41.9433 -75.7619 308° West 354 407 21,800 -850 Descending New Center
Sun 04:14:41 PM 42.0014 -75.8669 307° West 359 413 20,300 -1,462 Descending New Center
Sun 04:15:40 PM 42.0614 -75.9722 308° West 359 413 18,900 -1,109 Descending New Center
Sun 04:16:40 PM 42.1194 -76.0717 308° West 359 413 18,100 -934 Descending New Center
Sun 04:17:42 PM 42.1981 -76.1311 331° Northwest 334 384 17,000 -1,261 Descending New Center
Sun 04:18:39 PM 42.2961 -76.1253 North 318 366 15,600 -1,714 Descending New Center
Sun 04:19:20 PM 42.3719 -76.1192 North 348 400 14,200 -1,875 Descending Boston Center
Sun 04:20:15 PM 42.4600 -76.1075 North 343 395 12,600 -1,655 Descending Boston Center
Sun 04:21:16 PM 42.5478 -76.0986 North 332 382 11,000 -1,091 Descending Boston Center
Sun 04:22:16 PM 42.6336 -76.0922 North 294 338 10,400 -1,190 Descending Boston Center
Sun 04:23:17 PM 42.7131 -76.0856 North 262 302 8,600 -1,672 Descending Boston Center
Sun 04:24:18 PM 42.7858 -76.0844 North 256 295 7,000 -1,587 Descending Boston Center
Sun 04:25:18 PM 42.8547 -76.0856 359° North 248 285 5,400 -1,636 Descending Boston Center
Sun 04:26:19 PM 42.9217 -76.0753 North 241 277 3,700 -1,388 Descending Boston Center
Sun 04:27:19 PM 42.9850 -76.0508 16° North 227 261 2,600 -1,041 Descending Boston Center
Sun 04:28:20 PM 43.0400 -76.0311 15° North 210 242 1,600 -541 Descending Boston Center
Sun 04:29:21 PM 43.0922 -76.0286 North 153 176 1,500 -347 Descending Boston Center
Sun 04:30:21 PM 43.1117 -76.0725 301° West 127 146 900 -600 Descending Boston Center

Login

Don't have an account? Register now (free) for customized features, flight alerts, and more!